sensor_id;sensor_type;location;lat;lon;timestamp;temperature;humidity
17146;DHT22;8688;54.444;18.444;2023-05-07T00:00:37;6.60;99.90
17146;DHT22;8688;54.444;18.444;2023-05-07T00:03:04;6.50;99.90
17146;DHT22;8688;54.444;18.444;2023-05-07T00:05:32;6.50;99.90
17146;DHT22;8688;54.444;18.444;2023-05-07T00:08:00;6.50;99.90
17146;DHT22;8688;54.444;18.444;2023-05-07T00:10:29;6.50;99.90
17146;DHT22;8688;54.444;18.444;2023-05-07T00:12:56;6.50;99.90
17146;DHT22;8688;54.444;18.444;2023-05-07T00:15:24;6.50;99.90
17146;DHT22;8688;54.444;18.444;2023-05-07T00:17:51;6.40;99.90
17146;DHT22;8688;54.444;18.444;2023-05-07T00:20:19;6.40;99.90
17146;DHT22;8688;54.444;18.444;2023-05-07T00:22:46;6.30;99.90
17146;DHT22;8688;54.444;18.444;2023-05-07T00:25:14;6.30;99.90
17146;DHT22;8688;54.444;18.444;2023-05-07T00:27:43;6.30;99.90
17146;DHT22;8688;54.444;18.444;2023-05-07T00:30:11;6.30;99.90
17146;DHT22;8688;54.444;18.444;2023-05-07T00:32:39;6.20;99.90
17146;DHT22;8688;54.444;18.444;2023-05-07T00:35:07;6.20;99.90
17146;DHT22;8688;54.444;18.444;2023-05-07T00:37:35;6.20;99.90
17146;DHT22;8688;54.444;18.444;2023-05-07T00:40:03;6.30;99.90
17146;DHT22;8688;54.444;18.444;2023-05-07T00:42:33;6.20;99.90
17146;DHT22;8688;54.444;18.444;2023-05-07T00:45:02;6.20;99.90
17146;DHT22;8688;54.444;18.444;2023-05-07T00:47:30;6.20;99.90
17146;DHT22;8688;54.444;18.444;2023-05-07T00:49:58;6.10;99.90
17146;DHT22;8688;54.444;18.444;2023-05-07T00:52:26;6.10;99.90
17146;DHT22;8688;54.444;18.444;2023-05-07T00:54:54;6.10;99.90
17146;DHT22;8688;54.444;18.444;2023-05-07T00:57:23;6.00;99.90
17146;DHT22;8688;54.444;18.444;2023-05-07T00:59:51;6.00;99.90
17146;DHT22;8688;54.444;18.444;2023-05-07T01:02:20;6.00;99.90
17146;DHT22;8688;54.444;18.444;2023-05-07T01:04:48;6.00;99.90
17146;DHT22;8688;54.444;18.444;2023-05-07T01:07:15;6.00;99.90
17146;DHT22;8688;54.444;18.444;2023-05-07T01:09:43;5.90;99.90
17146;DHT22;8688;54.444;18.444;2023-05-07T01:12:11;5.90;99.90
17146;DHT22;8688;54.444;18.444;2023-05-07T01:14:38;5.90;99.90
17146;DHT22;8688;54.444;18.444;2023-05-07T01:17:06;5.80;99.90
17146;DHT22;8688;54.444;18.444;2023-05-07T01:19:35;5.90;99.90
17146;DHT22;8688;54.444;18.444;2023-05-07T01:22:08;5.80;99.90
17146;DHT22;8688;54.444;18.444;2023-05-07T01:24:38;5.80;99.90
17146;DHT22;8688;54.444;18.444;2023-05-07T01:27:05;5.80;99.90
17146;DHT22;8688;54.444;18.444;2023-05-07T01:29:33;5.70;99.90
17146;DHT22;8688;54.444;18.444;2023-05-07T01:32:01;5.70;99.90
17146;DHT22;8688;54.444;18.444;2023-05-07T01:34:32;5.70;99.90
17146;DHT22;8688;54.444;18.444;2023-05-07T01:37:00;5.60;99.90
17146;DHT22;8688;54.444;18.444;2023-05-07T01:39:29;5.50;99.90
17146;DHT22;8688;54.444;18.444;2023-05-07T01:41:59;5.50;99.90
17146;DHT22;8688;54.444;18.444;2023-05-07T01:44:27;5.60;99.90
17146;DHT22;8688;54.444;18.444;2023-05-07T01:46:56;5.60;99.90
17146;DHT22;8688;54.444;18.444;2023-05-07T01:49:24;5.60;99.90
17146;DHT22;8688;54.444;18.444;2023-05-07T01:51:52;5.50;99.90
17146;DHT22;8688;54.444;18.444;2023-05-07T01:54:20;5.50;99.90
17146;DHT22;8688;54.444;18.444;2023-05-07T01:56:53;5.50;99.90
17146;DHT22;8688;54.444;18.444;2023-05-07T01:59:22;5.40;99.90
17146;DHT22;8688;54.444;18.444;2023-05-07T02:01:49;5.40;99.90
17146;DHT22;8688;54.444;18.444;2023-05-07T02:04:17;5.40;99.90
17146;DHT22;8688;54.444;18.444;2023-05-07T02:06:45;5.40;99.90
17146;DHT22;8688;54.444;18.444;2023-05-07T02:09:14;5.40;99.90
17146;DHT22;8688;54.444;18.444;2023-05-07T02:11:41;5.30;99.90
17146;DHT22;8688;54.444;18.444;2023-05-07T02:14:09;5.30;99.90
17146;DHT22;8688;54.444;18.444;2023-05-07T02:16:38;5.20;99.90
17146;DHT22;8688;54.444;18.444;2023-05-07T02:19:05;5.20;99.90
17146;DHT22;8688;54.444;18.444;2023-05-07T02:21:33;5.20;99.90
17146;DHT22;8688;54.444;18.444;2023-05-07T02:24:00;5.20;99.90
17146;DHT22;8688;54.444;18.444;2023-05-07T02:26:27;5.10;99.90
17146;DHT22;8688;54.444;18.444;2023-05-07T02:28:55;5.10;99.90
17146;DHT22;8688;54.444;18.444;2023-05-07T02:31:23;5.10;99.90
17146;DHT22;8688;54.444;18.444;2023-05-07T02:33:51;5.00;99.90
17146;DHT22;8688;54.444;18.444;2023-05-07T02:36:19;5.00;99.90
17146;DHT22;8688;54.444;18.444;2023-05-07T02:38:46;5.00;99.90
17146;DHT22;8688;54.444;18.444;2023-05-07T02:41:14;4.90;99.90
17146;DHT22;8688;54.444;18.444;2023-05-07T02:43:41;4.90;99.90
17146;DHT22;8688;54.444;18.444;2023-05-07T02:46:09;4.90;99.90
17146;DHT22;8688;54.444;18.444;2023-05-07T02:48:36;4.90;99.90
17146;DHT22;8688;54.444;18.444;2023-05-07T02:51:05;4.90;99.90
17146;DHT22;8688;54.444;18.444;2023-05-07T02:53:33;4.90;99.90
17146;DHT22;8688;54.444;18.444;2023-05-07T02:56:01;4.90;99.90
17146;DHT22;8688;54.444;18.444;2023-05-07T02:58:29;4.90;99.90
17146;DHT22;8688;54.444;18.444;2023-05-07T03:00:57;4.80;99.90
17146;DHT22;8688;54.444;18.444;2023-05-07T03:03:24;4.80;99.90
17146;DHT22;8688;54.444;18.444;2023-05-07T03:05:52;4.80;99.90
17146;DHT22;8688;54.444;18.444;2023-05-07T03:08:21;4.80;99.90
17146;DHT22;8688;54.444;18.444;2023-05-07T03:10:48;4.80;99.90
17146;DHT22;8688;54.444;18.444;2023-05-07T03:13:16;4.80;99.90
17146;DHT22;8688;54.444;18.444;2023-05-07T03:15:49;4.70;99.90
17146;DHT22;8688;54.444;18.444;2023-05-07T03:18:17;4.70;99.90
17146;DHT22;8688;54.444;18.444;2023-05-07T03:20:44;4.70;99.90
17146;DHT22;8688;54.444;18.444;2023-05-07T03:23:12;4.60;99.90
17146;DHT22;8688;54.444;18.444;2023-05-07T03:25:41;4.60;99.90
17146;DHT22;8688;54.444;18.444;2023-05-07T03:28:08;4.60;99.90
17146;DHT22;8688;54.444;18.444;2023-05-07T03:30:35;4.60;99.90
17146;DHT22;8688;54.444;18.444;2023-05-07T03:33:04;4.60;99.90
17146;DHT22;8688;54.444;18.444;2023-05-07T03:35:32;4.70;99.90
17146;DHT22;8688;54.444;18.444;2023-05-07T03:37:59;4.60;99.90
17146;DHT22;8688;54.444;18.444;2023-05-07T03:40:29;4.70;99.90
17146;DHT22;8688;54.444;18.444;2023-05-07T03:43:01;4.70;99.90
17146;DHT22;8688;54.444;18.444;2023-05-07T03:45:29;4.70;99.90
17146;DHT22;8688;54.444;18.444;2023-05-07T03:47:56;4.70;99.90
17146;DHT22;8688;54.444;18.444;2023-05-07T03:50:24;4.70;99.90
17146;DHT22;8688;54.444;18.444;2023-05-07T03:52:51;4.80;99.90
17146;DHT22;8688;54.444;18.444;2023-05-07T03:55:19;4.70;99.90
17146;DHT22;8688;54.444;18.444;2023-05-07T03:57:46;4.70;99.90
17146;DHT22;8688;54.444;18.444;2023-05-07T04:00:16;4.60;99.90
17146;DHT22;8688;54.444;18.444;2023-05-07T04:02:43;4.50;99.90
17146;DHT22;8688;54.444;18.444;2023-05-07T04:05:11;4.50;99.90
17146;DHT22;8688;54.444;18.444;2023-05-07T04:07:39;4.50;99.90
17146;DHT22;8688;54.444;18.444;2023-05-07T04:10:07;4.50;99.90
17146;DHT22;8688;54.444;18.444;2023-05-07T04:12:35;4.50;99.90
17146;DHT22;8688;54.444;18.444;2023-05-07T04:15:02;4.50;99.90
17146;DHT22;8688;54.444;18.444;2023-05-07T04:17:31;4.50;99.90
17146;DHT22;8688;54.444;18.444;2023-05-07T04:19:59;4.60;99.90
17146;DHT22;8688;54.444;18.444;2023-05-07T04:22:26;4.60;99.90
17146;DHT22;8688;54.444;18.444;2023-05-07T04:24:54;4.80;99.90
17146;DHT22;8688;54.444;18.444;2023-05-07T04:27:22;4.90;99.90
17146;DHT22;8688;54.444;18.444;2023-05-07T04:29:52;5.10;99.90
17146;DHT22;8688;54.444;18.444;2023-05-07T04:32:21;5.30;99.90
17146;DHT22;8688;54.444;18.444;2023-05-07T04:34:52;5.50;99.90
17146;DHT22;8688;54.444;18.444;2023-05-07T04:37:19;5.60;99.90
17146;DHT22;8688;54.444;18.444;2023-05-07T04:39:47;5.70;99.90
17146;DHT22;8688;54.444;18.444;2023-05-07T04:42:15;5.80;99.90
17146;DHT22;8688;54.444;18.444;2023-05-07T04:44:43;5.80;99.90
17146;DHT22;8688;54.444;18.444;2023-05-07T04:47:11;6.00;99.90
17146;DHT22;8688;54.444;18.444;2023-05-07T04:49:39;6.00;99.90
17146;DHT22;8688;54.444;18.444;2023-05-07T04:52:08;6.10;99.90
17146;DHT22;8688;54.444;18.444;2023-05-07T04:54:35;6.20;99.90
17146;DHT22;8688;54.444;18.444;2023-05-07T04:57:04;6.30;99.90
17146;DHT22;8688;54.444;18.444;2023-05-07T04:59:32;6.40;99.90
17146;DHT22;8688;54.444;18.444;2023-05-07T05:01:59;6.50;99.90
17146;DHT22;8688;54.444;18.444;2023-05-07T05:04:27;6.50;99.90
17146;DHT22;8688;54.444;18.444;2023-05-07T05:06:54;6.60;99.90
17146;DHT22;8688;54.444;18.444;2023-05-07T05:09:23;6.70;99.90
17146;DHT22;8688;54.444;18.444;2023-05-07T05:11:51;6.80;99.90
17146;DHT22;8688;54.444;18.444;2023-05-07T05:14:18;6.90;99.90
17146;DHT22;8688;54.444;18.444;2023-05-07T05:16:46;6.90;99.90
17146;DHT22;8688;54.444;18.444;2023-05-07T05:19:13;6.90;99.90
17146;DHT22;8688;54.444;18.444;2023-05-07T05:21:41;7.00;99.90
17146;DHT22;8688;54.444;18.444;2023-05-07T05:24:08;7.10;99.90
17146;DHT22;8688;54.444;18.444;2023-05-07T05:26:37;7.10;99.90
17146;DHT22;8688;54.444;18.444;2023-05-07T05:29:05;7.20;99.90
17146;DHT22;8688;54.444;18.444;2023-05-07T05:31:33;7.30;99.90
17146;DHT22;8688;54.444;18.444;2023-05-07T05:34:01;7.20;99.90
17146;DHT22;8688;54.444;18.444;2023-05-07T05:36:29;7.30;99.90
17146;DHT22;8688;54.444;18.444;2023-05-07T05:38:56;7.40;99.90
17146;DHT22;8688;54.444;18.444;2023-05-07T05:41:24;7.40;99.90
17146;DHT22;8688;54.444;18.444;2023-05-07T05:43:53;7.40;99.90
17146;DHT22;8688;54.444;18.444;2023-05-07T05:46:20;7.50;99.90
17146;DHT22;8688;54.444;18.444;2023-05-07T05:48:48;7.60;99.90
17146;DHT22;8688;54.444;18.444;2023-05-07T05:51:15;7.70;99.90
17146;DHT22;8688;54.444;18.444;2023-05-07T05:53:43;7.80;99.90
17146;DHT22;8688;54.444;18.444;2023-05-07T05:56:10;7.80;99.90
17146;DHT22;8688;54.444;18.444;2023-05-07T05:58:38;7.90;99.90
17146;DHT22;8688;54.444;18.444;2023-05-07T06:01:07;7.90;99.90
17146;DHT22;8688;54.444;18.444;2023-05-07T06:03:34;8.00;99.90
17146;DHT22;8688;54.444;18.444;2023-05-07T06:06:02;8.00;99.90
17146;DHT22;8688;54.444;18.444;2023-05-07T06:08:30;8.00;99.90
17146;DHT22;8688;54.444;18.444;2023-05-07T06:10:58;8.00;99.90
17146;DHT22;8688;54.444;18.444;2023-05-07T06:13:25;8.10;99.90
17146;DHT22;8688;54.444;18.444;2023-05-07T06:15:53;8.10;99.90
17146;DHT22;8688;54.444;18.444;2023-05-07T06:18:22;8.20;99.90
17146;DHT22;8688;54.444;18.444;2023-05-07T06:20:49;8.40;99.90
17146;DHT22;8688;54.444;18.444;2023-05-07T06:23:17;8.50;99.90
17146;DHT22;8688;54.444;18.444;2023-05-07T06:25:48;8.60;99.90
17146;DHT22;8688;54.444;18.444;2023-05-07T06:28:16;8.60;99.90
17146;DHT22;8688;54.444;18.444;2023-05-07T06:30:44;8.60;99.90
17146;DHT22;8688;54.444;18.444;2023-05-07T06:33:11;8.70;99.90
17146;DHT22;8688;54.444;18.444;2023-05-07T06:35:40;8.80;99.90
17146;DHT22;8688;54.444;18.444;2023-05-07T06:38:08;8.90;99.90
17146;DHT22;8688;54.444;18.444;2023-05-07T06:40:36;8.90;99.90
17146;DHT22;8688;54.444;18.444;2023-05-07T06:43:03;9.00;99.90
17146;DHT22;8688;54.444;18.444;2023-05-07T06:45:31;9.00;99.90
17146;DHT22;8688;54.444;18.444;2023-05-07T06:47:58;9.10;99.90
17146;DHT22;8688;54.444;18.444;2023-05-07T06:50:26;9.20;99.90
17146;DHT22;8688;54.444;18.444;2023-05-07T06:52:55;9.30;99.90
17146;DHT22;8688;54.444;18.444;2023-05-07T06:55:22;9.40;99.90
17146;DHT22;8688;54.444;18.444;2023-05-07T06:57:50;9.40;99.90
17146;DHT22;8688;54.444;18.444;2023-05-07T07:00:18;9.50;99.90
17146;DHT22;8688;54.444;18.444;2023-05-07T07:02:46;9.50;99.90
17146;DHT22;8688;54.444;18.444;2023-05-07T07:05:13;9.60;99.90
17146;DHT22;8688;54.444;18.444;2023-05-07T07:07:41;9.60;99.90
17146;DHT22;8688;54.444;18.444;2023-05-07T07:10:10;9.70;99.90
17146;DHT22;8688;54.444;18.444;2023-05-07T07:12:37;9.80;99.90
17146;DHT22;8688;54.444;18.444;2023-05-07T07:15:08;9.90;99.90
17146;DHT22;8688;54.444;18.444;2023-05-07T07:17:37;9.90;99.90
17146;DHT22;8688;54.444;18.444;2023-05-07T07:20:06;9.90;99.90
17146;DHT22;8688;54.444;18.444;2023-05-07T07:22:34;10.10;99.90
17146;DHT22;8688;54.444;18.444;2023-05-07T07:25:01;10.20;99.90
17146;DHT22;8688;54.444;18.444;2023-05-07T07:27:30;10.30;99.90
17146;DHT22;8688;54.444;18.444;2023-05-07T07:29:58;10.40;99.90
17146;DHT22;8688;54.444;18.444;2023-05-07T07:32:25;10.40;99.90
17146;DHT22;8688;54.444;18.444;2023-05-07T07:34:53;10.40;99.90
17146;DHT22;8688;54.444;18.444;2023-05-07T07:37:20;10.50;99.90
17146;DHT22;8688;54.444;18.444;2023-05-07T07:39:48;10.50;99.90
17146;DHT22;8688;54.444;18.444;2023-05-07T07:42:15;10.60;99.90
17146;DHT22;8688;54.444;18.444;2023-05-07T07:44:45;10.60;99.90
17146;DHT22;8688;54.444;18.444;2023-05-07T07:47:13;10.70;99.90
17146;DHT22;8688;54.444;18.444;2023-05-07T07:49:40;10.80;99.90
17146;DHT22;8688;54.444;18.444;2023-05-07T07:52:07;10.90;99.90
17146;DHT22;8688;54.444;18.444;2023-05-07T07:54:35;11.00;99.90
17146;DHT22;8688;54.444;18.444;2023-05-07T07:57:03;11.00;99.90
17146;DHT22;8688;54.444;18.444;2023-05-07T07:59:31;11.00;99.90
17146;DHT22;8688;54.444;18.444;2023-05-07T08:02:00;11.00;99.90
17146;DHT22;8688;54.444;18.444;2023-05-07T08:04:27;11.20;99.90
17146;DHT22;8688;54.444;18.444;2023-05-07T08:06:57;11.30;99.90
17146;DHT22;8688;54.444;18.444;2023-05-07T08:09:25;11.30;99.90
17146;DHT22;8688;54.444;18.444;2023-05-07T08:11:52;11.30;99.90
17146;DHT22;8688;54.444;18.444;2023-05-07T08:14:20;11.30;99.90
17146;DHT22;8688;54.444;18.444;2023-05-07T08:16:47;11.30;99.90
17146;DHT22;8688;54.444;18.444;2023-05-07T08:19:18;11.30;99.90
17146;DHT22;8688;54.444;18.444;2023-05-07T08:21:46;11.30;99.90
17146;DHT22;8688;54.444;18.444;2023-05-07T08:24:17;11.40;99.90
17146;DHT22;8688;54.444;18.444;2023-05-07T08:26:44;11.40;99.90
17146;DHT22;8688;54.444;18.444;2023-05-07T08:29:12;11.50;99.90
17146;DHT22;8688;54.444;18.444;2023-05-07T08:31:39;11.60;99.10
17146;DHT22;8688;54.444;18.444;2023-05-07T08:34:07;11.60;98.70
17146;DHT22;8688;54.444;18.444;2023-05-07T08:36:36;11.50;99.90
17146;DHT22;8688;54.444;18.444;2023-05-07T08:39:04;11.60;99.20
17146;DHT22;8688;54.444;18.444;2023-05-07T08:41:32;11.50;97.10
17146;DHT22;8688;54.444;18.444;2023-05-07T08:44:06;11.50;97.00
17146;DHT22;8688;54.444;18.444;2023-05-07T08:46:39;11.50;98.70
17146;DHT22;8688;54.444;18.444;2023-05-07T08:49:07;11.60;96.60
17146;DHT22;8688;54.444;18.444;2023-05-07T08:51:36;11.70;95.80
17146;DHT22;8688;54.444;18.444;2023-05-07T08:54:04;11.80;96.30
17146;DHT22;8688;54.444;18.444;2023-05-07T08:56:33;11.80;94.50
17146;DHT22;8688;54.444;18.444;2023-05-07T08:59:00;11.80;92.50
17146;DHT22;8688;54.444;18.444;2023-05-07T09:01:29;11.90;91.60
17146;DHT22;8688;54.444;18.444;2023-05-07T09:03:57;11.80;88.70
17146;DHT22;8688;54.444;18.444;2023-05-07T09:06:25;11.80;87.80
17146;DHT22;8688;54.444;18.444;2023-05-07T09:08:54;11.80;89.50
17146;DHT22;8688;54.444;18.444;2023-05-07T09:11:23;12.00;89.50
17146;DHT22;8688;54.444;18.444;2023-05-07T09:13:54;12.00;90.50
17146;DHT22;8688;54.444;18.444;2023-05-07T09:16:24;12.10;90.40
17146;DHT22;8688;54.444;18.444;2023-05-07T09:18:53;12.10;90.10
17146;DHT22;8688;54.444;18.444;2023-05-07T09:21:21;12.10;87.70
17146;DHT22;8688;54.444;18.444;2023-05-07T09:23:51;12.20;85.90
17146;DHT22;8688;54.444;18.444;2023-05-07T09:26:21;12.10;84.90
17146;DHT22;8688;54.444;18.444;2023-05-07T09:28:49;12.10;89.00
17146;DHT22;8688;54.444;18.444;2023-05-07T09:31:17;12.10;90.30
17146;DHT22;8688;54.444;18.444;2023-05-07T09:33:44;12.20;90.80
17146;DHT22;8688;54.444;18.444;2023-05-07T09:36:12;12.10;86.70
17146;DHT22;8688;54.444;18.444;2023-05-07T09:38:40;12.20;86.90
17146;DHT22;8688;54.444;18.444;2023-05-07T09:41:09;12.30;86.40
17146;DHT22;8688;54.444;18.444;2023-05-07T09:43:39;12.40;87.20
17146;DHT22;8688;54.444;18.444;2023-05-07T09:46:08;12.40;83.50
17146;DHT22;8688;54.444;18.444;2023-05-07T09:48:41;12.30;82.80
17146;DHT22;8688;54.444;18.444;2023-05-07T09:51:22;12.30;83.40
17146;DHT22;8688;54.444;18.444;2023-05-07T09:53:53;12.40;85.50
17146;DHT22;8688;54.444;18.444;2023-05-07T09:56:21;12.40;84.00
17146;DHT22;8688;54.444;18.444;2023-05-07T09:58:53;12.50;84.60
17146;DHT22;8688;54.444;18.444;2023-05-07T10:01:22;12.50;86.80
17146;DHT22;8688;54.444;18.444;2023-05-07T10:03:50;12.50;86.30
17146;DHT22;8688;54.444;18.444;2023-05-07T10:06:20;12.60;84.80
17146;DHT22;8688;54.444;18.444;2023-05-07T10:08:48;12.60;85.50
17146;DHT22;8688;54.444;18.444;2023-05-07T10:11:16;12.50;82.50
17146;DHT22;8688;54.444;18.444;2023-05-07T10:13:44;12.50;84.70
17146;DHT22;8688;54.444;18.444;2023-05-07T10:16:15;12.40;87.30
17146;DHT22;8688;54.444;18.444;2023-05-07T10:18:43;12.50;87.30
17146;DHT22;8688;54.444;18.444;2023-05-07T10:21:14;12.70;84.10
17146;DHT22;8688;54.444;18.444;2023-05-07T10:23:45;12.70;81.80
17146;DHT22;8688;54.444;18.444;2023-05-07T10:26:14;12.70;82.10
17146;DHT22;8688;54.444;18.444;2023-05-07T10:28:44;12.50;79.60
17146;DHT22;8688;54.444;18.444;2023-05-07T10:31:30;12.50;85.60
17146;DHT22;8688;54.444;18.444;2023-05-07T10:34:08;12.70;83.60
17146;DHT22;8688;54.444;18.444;2023-05-07T10:36:36;12.60;80.50
17146;DHT22;8688;54.444;18.444;2023-05-07T10:39:07;12.60;80.10
17146;DHT22;8688;54.444;18.444;2023-05-07T10:41:34;12.60;83.10
17146;DHT22;8688;54.444;18.444;2023-05-07T10:44:03;12.60;79.40
17146;DHT22;8688;54.444;18.444;2023-05-07T10:46:32;12.70;81.60
17146;DHT22;8688;54.444;18.444;2023-05-07T10:49:10;12.80;80.00
17146;DHT22;8688;54.444;18.444;2023-05-07T10:51:38;12.80;79.90
17146;DHT22;8688;54.444;18.444;2023-05-07T10:54:24;12.90;79.50
17146;DHT22;8688;54.444;18.444;2023-05-07T10:56:51;12.90;83.10
17146;DHT22;8688;54.444;18.444;2023-05-07T10:59:40;13.00;81.00
17146;DHT22;8688;54.444;18.444;2023-05-07T11:02:11;13.00;78.90
17146;DHT22;8688;54.444;18.444;2023-05-07T11:04:41;12.90;76.90
17146;DHT22;8688;54.444;18.444;2023-05-07T11:07:29;12.80;76.90
17146;DHT22;8688;54.444;18.444;2023-05-07T11:09:58;12.70;77.80
17146;DHT22;8688;54.444;18.444;2023-05-07T11:12:49;12.70;79.40
17146;DHT22;8688;54.444;18.444;2023-05-07T11:15:40;12.70;79.20
17146;DHT22;8688;54.444;18.444;2023-05-07T11:18:13;12.90;76.80
17146;DHT22;8688;54.444;18.444;2023-05-07T11:20:55;13.00;77.50
17146;DHT22;8688;54.444;18.444;2023-05-07T11:26:31;12.90;74.00
17146;DHT22;8688;54.444;18.444;2023-05-07T11:29:11;12.80;74.20
17146;DHT22;8688;54.444;18.444;2023-05-07T11:31:39;12.80;75.00
17146;DHT22;8688;54.444;18.444;2023-05-07T11:34:08;12.90;75.70
17146;DHT22;8688;54.444;18.444;2023-05-07T11:36:42;13.00;76.90
17146;DHT22;8688;54.444;18.444;2023-05-07T11:39:29;13.10;80.00
17146;DHT22;8688;54.444;18.444;2023-05-07T11:41:57;13.20;75.80
17146;DHT22;8688;54.444;18.444;2023-05-07T11:44:25;13.30;75.30
17146;DHT22;8688;54.444;18.444;2023-05-07T11:46:53;13.30;76.20
17146;DHT22;8688;54.444;18.444;2023-05-07T11:49:25;13.40;76.20
17146;DHT22;8688;54.444;18.444;2023-05-07T11:51:52;13.50;78.20
17146;DHT22;8688;54.444;18.444;2023-05-07T11:54:20;13.50;75.10
17146;DHT22;8688;54.444;18.444;2023-05-07T11:56:49;13.20;75.20
17146;DHT22;8688;54.444;18.444;2023-05-07T11:59:19;13.30;76.20
17146;DHT22;8688;54.444;18.444;2023-05-07T12:01:47;13.30;74.30
17146;DHT22;8688;54.444;18.444;2023-05-07T12:04:21;13.50;73.60
17146;DHT22;8688;54.444;18.444;2023-05-07T12:06:48;13.50;72.80
17146;DHT22;8688;54.444;18.444;2023-05-07T12:09:17;13.40;73.20
17146;DHT22;8688;54.444;18.444;2023-05-07T12:11:46;13.40;72.00
17146;DHT22;8688;54.444;18.444;2023-05-07T12:14:14;13.40;73.10
17146;DHT22;8688;54.444;18.444;2023-05-07T12:16:42;13.40;70.10
17146;DHT22;8688;54.444;18.444;2023-05-07T12:19:11;13.30;72.40
17146;DHT22;8688;54.444;18.444;2023-05-07T12:21:43;13.40;71.70
17146;DHT22;8688;54.444;18.444;2023-05-07T12:24:10;13.40;72.00
17146;DHT22;8688;54.444;18.444;2023-05-07T12:26:38;13.40;72.80
17146;DHT22;8688;54.444;18.444;2023-05-07T12:29:06;13.50;73.20
17146;DHT22;8688;54.444;18.444;2023-05-07T12:31:36;13.60;74.10
17146;DHT22;8688;54.444;18.444;2023-05-07T12:34:04;13.70;71.80
17146;DHT22;8688;54.444;18.444;2023-05-07T12:39:24;13.90;68.90
17146;DHT22;8688;54.444;18.444;2023-05-07T12:41:56;13.90;71.70
17146;DHT22;8688;54.444;18.444;2023-05-07T12:44:29;13.90;71.70
17146;DHT22;8688;54.444;18.444;2023-05-07T12:47:02;13.70;71.10
17146;DHT22;8688;54.444;18.444;2023-05-07T12:49:29;13.80;75.20
17146;DHT22;8688;54.444;18.444;2023-05-07T12:51:57;13.90;75.30
17146;DHT22;8688;54.444;18.444;2023-05-07T12:54:31;13.90;72.00
17146;DHT22;8688;54.444;18.444;2023-05-07T12:57:02;14.20;71.50
17146;DHT22;8688;54.444;18.444;2023-05-07T12:59:35;14.20;71.70
17146;DHT22;8688;54.444;18.444;2023-05-07T13:02:03;14.20;71.60
17146;DHT22;8688;54.444;18.444;2023-05-07T13:04:31;14.30;70.30
17146;DHT22;8688;54.444;18.444;2023-05-07T13:06:59;14.30;70.10
17146;DHT22;8688;54.444;18.444;2023-05-07T13:09:27;14.40;73.20
17146;DHT22;8688;54.444;18.444;2023-05-07T13:11:56;14.50;70.00
17146;DHT22;8688;54.444;18.444;2023-05-07T13:14:26;14.40;73.00
17146;DHT22;8688;54.444;18.444;2023-05-07T13:16:53;14.30;74.50
17146;DHT22;8688;54.444;18.444;2023-05-07T13:19:21;14.30;75.20
17146;DHT22;8688;54.444;18.444;2023-05-07T13:21:48;14.50;72.60
17146;DHT22;8688;54.444;18.444;2023-05-07T13:24:16;14.30;72.60
17146;DHT22;8688;54.444;18.444;2023-05-07T13:26:44;14.10;73.00
17146;DHT22;8688;54.444;18.444;2023-05-07T13:29:13;14.20;74.70
17146;DHT22;8688;54.444;18.444;2023-05-07T13:31:40;14.30;75.80
17146;DHT22;8688;54.444;18.444;2023-05-07T13:34:09;14.20;75.00
17146;DHT22;8688;54.444;18.444;2023-05-07T13:36:37;14.30;75.00
17146;DHT22;8688;54.444;18.444;2023-05-07T13:39:05;14.00;72.10
17146;DHT22;8688;54.444;18.444;2023-05-07T13:41:33;14.00;75.70
17146;DHT22;8688;54.444;18.444;2023-05-07T13:44:00;14.00;74.50
17146;DHT22;8688;54.444;18.444;2023-05-07T13:46:29;14.00;75.70
17146;DHT22;8688;54.444;18.444;2023-05-07T13:48:58;14.10;75.70
17146;DHT22;8688;54.444;18.444;2023-05-07T13:51:26;14.10;76.00
17146;DHT22;8688;54.444;18.444;2023-05-07T13:53:53;14.00;75.10
17146;DHT22;8688;54.444;18.444;2023-05-07T13:56:21;14.00;76.70
17146;DHT22;8688;54.444;18.444;2023-05-07T13:58:49;14.00;75.00
17146;DHT22;8688;54.444;18.444;2023-05-07T14:01:16;14.10;75.70
17146;DHT22;8688;54.444;18.444;2023-05-07T14:03:45;14.10;75.10
17146;DHT22;8688;54.444;18.444;2023-05-07T14:06:12;14.00;76.80
17146;DHT22;8688;54.444;18.444;2023-05-07T14:08:40;14.10;75.00
17146;DHT22;8688;54.444;18.444;2023-05-07T14:11:08;14.00;73.80
17146;DHT22;8688;54.444;18.444;2023-05-07T14:13:36;13.80;75.20
17146;DHT22;8688;54.444;18.444;2023-05-07T14:16:04;13.90;75.20
17146;DHT22;8688;54.444;18.444;2023-05-07T14:18:32;13.80;74.10
17146;DHT22;8688;54.444;18.444;2023-05-07T14:21:04;13.70;74.20
17146;DHT22;8688;54.444;18.444;2023-05-07T14:23:35;13.70;73.50
17146;DHT22;8688;54.444;18.444;2023-05-07T14:26:03;13.70;73.80
17146;DHT22;8688;54.444;18.444;2023-05-07T14:28:30;13.70;73.30
17146;DHT22;8688;54.444;18.444;2023-05-07T14:30:58;13.50;70.20
17146;DHT22;8688;54.444;18.444;2023-05-07T14:33:25;13.60;71.60
17146;DHT22;8688;54.444;18.444;2023-05-07T14:35:53;13.70;72.50
17146;DHT22;8688;54.444;18.444;2023-05-07T14:38:22;13.60;71.00
17146;DHT22;8688;54.444;18.444;2023-05-07T14:40:49;13.60;73.60
17146;DHT22;8688;54.444;18.444;2023-05-07T14:43:18;13.50;72.10
17146;DHT22;8688;54.444;18.444;2023-05-07T14:45:46;13.50;74.10
17146;DHT22;8688;54.444;18.444;2023-05-07T14:48:14;13.60;72.80
17146;DHT22;8688;54.444;18.444;2023-05-07T14:50:42;13.60;72.30
17146;DHT22;8688;54.444;18.444;2023-05-07T14:53:10;13.70;71.00
17146;DHT22;8688;54.444;18.444;2023-05-07T14:55:40;13.80;69.80
17146;DHT22;8688;54.444;18.444;2023-05-07T14:58:07;13.90;72.80
17146;DHT22;8688;54.444;18.444;2023-05-07T15:00:35;13.70;72.10
17146;DHT22;8688;54.444;18.444;2023-05-07T15:03:06;13.70;71.50
17146;DHT22;8688;54.444;18.444;2023-05-07T15:05:34;13.50;72.50
17146;DHT22;8688;54.444;18.444;2023-05-07T15:08:03;13.50;71.50
17146;DHT22;8688;54.444;18.444;2023-05-07T15:10:31;13.50;71.80
17146;DHT22;8688;54.444;18.444;2023-05-07T15:13:07;13.50;71.50
17146;DHT22;8688;54.444;18.444;2023-05-07T15:15:35;13.40;71.00
17146;DHT22;8688;54.444;18.444;2023-05-07T15:18:03;13.30;71.00
17146;DHT22;8688;54.444;18.444;2023-05-07T15:20:31;13.40;71.90
17146;DHT22;8688;54.444;18.444;2023-05-07T15:23:02;13.50;71.30
17146;DHT22;8688;54.444;18.444;2023-05-07T15:25:31;13.40;72.00
17146;DHT22;8688;54.444;18.444;2023-05-07T15:28:00;13.50;71.60
17146;DHT22;8688;54.444;18.444;2023-05-07T15:30:31;13.30;69.60
17146;DHT22;8688;54.444;18.444;2023-05-07T15:32:59;13.20;70.90
17146;DHT22;8688;54.444;18.444;2023-05-07T15:35:31;13.10;71.60
17146;DHT22;8688;54.444;18.444;2023-05-07T15:38:00;13.40;70.10
17146;DHT22;8688;54.444;18.444;2023-05-07T15:40:29;13.40;68.80
17146;DHT22;8688;54.444;18.444;2023-05-07T15:42:57;13.40;70.50
17146;DHT22;8688;54.444;18.444;2023-05-07T15:45:24;13.20;69.10
17146;DHT22;8688;54.444;18.444;2023-05-07T15:47:53;13.10;70.90
17146;DHT22;8688;54.444;18.444;2023-05-07T15:50:21;13.00;70.80
17146;DHT22;8688;54.444;18.444;2023-05-07T15:52:48;13.20;71.40